createdAt,value
2019-03-12T00:02:22.232Z,1.17
2019-03-12T00:04:50.086Z,1.10
2019-03-12T00:07:17.976Z,1.10
2019-03-12T00:09:46.023Z,1.07
2019-03-12T00:12:13.903Z,1.20
2019-03-12T00:14:41.657Z,1.13
2019-03-12T00:17:09.526Z,1.10
2019-03-12T00:19:37.491Z,1.03
2019-03-12T00:22:05.274Z,1.20
2019-03-12T00:24:34.848Z,1.00
2019-03-12T00:27:03.996Z,1.00
2019-03-12T00:29:32.740Z,1.20
2019-03-12T00:32:00.631Z,1.00
2019-03-12T00:34:28.690Z,1.20
2019-03-12T00:36:56.751Z,1.30
2019-03-12T00:39:24.748Z,1.27
2019-03-12T00:41:52.525Z,1.67
2019-03-12T00:44:20.772Z,1.40
2019-03-12T00:46:48.637Z,1.50
2019-03-12T00:49:16.814Z,1.40
2019-03-12T00:51:45.638Z,1.40
2019-03-12T00:54:13.588Z,1.40
2019-03-12T00:56:41.708Z,1.23
2019-03-12T00:59:09.736Z,1.10
2019-03-12T01:01:37.788Z,1.10
2019-03-12T01:04:05.892Z,1.20
2019-03-12T01:06:34.222Z,1.30
2019-03-12T01:09:03.105Z,1.40
2019-03-12T01:11:32.501Z,1.20
2019-03-12T01:14:00.269Z,1.23
2019-03-12T01:16:27.947Z,1.30
2019-03-12T01:18:55.534Z,1.30
2019-03-12T01:21:23.102Z,1.10
2019-03-12T01:23:50.772Z,1.33
2019-03-12T01:26:18.366Z,1.20
2019-03-12T01:28:46.410Z,1.30
2019-03-12T01:31:14.428Z,1.30
2019-03-12T01:33:42.655Z,1.30
2019-03-12T01:36:10.560Z,1.50
2019-03-12T01:38:39.008Z,1.20
2019-03-12T01:41:07.089Z,1.30
2019-03-12T01:43:35.282Z,1.30
2019-03-12T01:46:03.246Z,1.60
2019-03-12T01:48:31.284Z,1.60
2019-03-12T01:50:59.451Z,1.30
2019-03-12T01:53:27.572Z,1.20
2019-03-12T01:55:55.763Z,1.70
2019-03-12T01:58:24.141Z,1.73
2019-03-12T02:00:52.523Z,1.63
2019-03-12T02:03:20.459Z,1.57
2019-03-12T02:05:48.509Z,1.63
2019-03-12T02:08:16.592Z,1.70
2019-03-12T02:10:44.577Z,1.70
2019-03-12T02:13:12.735Z,1.70
2019-03-12T02:15:41.031Z,1.80
2019-03-12T02:18:09.260Z,1.60
2019-03-12T02:20:37.313Z,1.60
2019-03-12T02:23:05.187Z,1.70
2019-03-12T02:34:31.090Z,1.50
2019-03-12T02:36:58.747Z,1.90
2019-03-12T02:39:26.416Z,1.70
2019-03-12T02:41:53.941Z,1.90
2019-03-12T02:44:21.978Z,2.33
2019-03-12T02:46:49.998Z,2.00
2019-03-12T02:49:20.527Z,2.13
2019-03-12T02:51:48.320Z,2.20
2019-03-12T02:54:16.199Z,1.90
2019-03-12T02:56:44.251Z,2.03
2019-03-12T02:59:12.414Z,1.90
2019-03-12T03:01:40.463Z,1.83
2019-03-12T03:04:08.354Z,2.10
2019-03-12T03:06:43.734Z,1.73
2019-03-12T03:09:11.660Z,2.07
2019-03-12T03:11:39.471Z,2.20
2019-03-12T03:14:27.917Z,2.70
2019-03-12T03:16:55.869Z,2.10
2019-03-12T03:19:23.542Z,3.40
2019-03-12T03:21:51.124Z,3.60
2019-03-12T03:24:18.779Z,3.00
2019-03-12T03:26:46.383Z,3.00
2019-03-12T03:29:14.048Z,2.70
2019-03-12T03:31:41.618Z,3.23
2019-03-12T03:34:09.293Z,2.97
2019-03-12T03:36:36.824Z,2.90
2019-03-12T03:39:05.429Z,2.63
2019-03-12T03:41:35.139Z,2.40
2019-03-12T03:44:02.930Z,2.40
2019-03-12T03:46:30.627Z,2.27
2019-03-12T03:48:58.394Z,2.20
2019-03-12T03:51:26.186Z,2.20
2019-03-12T03:53:55.006Z,2.40
2019-03-12T03:56:22.754Z,2.40
2019-03-12T03:58:50.447Z,2.30
2019-03-12T04:01:18.066Z,2.37
2019-03-12T04:03:45.746Z,2.40
2019-03-12T04:06:13.334Z,2.53
2019-03-12T04:08:40.935Z,2.50
2019-03-12T04:11:08.656Z,2.37
2019-03-12T04:13:36.319Z,2.63
2019-03-12T04:16:04.094Z,3.10
2019-03-12T04:18:31.735Z,2.53
2019-03-12T04:20:59.537Z,2.40
2019-03-12T04:23:28.348Z,2.97
2019-03-12T04:25:56.023Z,2.67
2019-03-12T04:28:23.677Z,3.20
2019-03-12T04:30:51.375Z,3.40
2019-03-12T04:34:16.052Z,3.20
2019-03-12T04:36:43.609Z,3.67
2019-03-12T04:39:11.258Z,3.60
2019-03-12T04:41:38.822Z,4.07
2019-03-12T04:44:06.447Z,3.30
2019-03-12T04:46:34.014Z,3.17
2019-03-12T04:49:01.638Z,3.40
2019-03-12T04:51:29.199Z,3.63
2019-03-12T04:53:56.833Z,3.30
2019-03-12T04:56:24.371Z,4.30
2019-03-12T04:58:51.988Z,3.63
2019-03-12T05:01:19.558Z,3.70
2019-03-12T05:03:47.220Z,3.90
2019-03-12T05:06:14.825Z,4.77
2019-03-12T05:08:42.527Z,6.13
2019-03-12T05:11:10.173Z,7.83
2019-03-12T05:13:37.854Z,6.97
2019-03-12T05:16:05.538Z,5.37
2019-03-12T05:18:33.176Z,5.27
2019-03-12T05:21:00.827Z,5.33
2019-03-12T05:23:28.513Z,4.77
2019-03-12T05:25:56.131Z,7.17
2019-03-12T05:28:23.765Z,6.07
2019-03-12T05:30:52.371Z,6.00
2019-03-12T05:33:20.086Z,5.30
2019-03-12T05:35:47.849Z,5.10
2019-03-12T05:38:15.508Z,4.97
2019-03-12T05:40:43.204Z,6.53
2019-03-12T05:43:10.935Z,6.67
2019-03-12T05:45:38.657Z,4.93
2019-03-12T05:48:06.273Z,4.70
2019-03-12T05:50:33.948Z,4.70
2019-03-12T05:53:11.101Z,5.23
2019-03-12T05:55:38.849Z,5.17
2019-03-12T05:58:06.602Z,5.20
2019-03-12T06:00:34.196Z,5.20
2019-03-12T06:03:01.920Z,5.60
2019-03-12T06:05:29.634Z,6.03
2019-03-12T06:07:57.353Z,6.27
2019-03-12T06:10:25.068Z,5.17
2019-03-12T06:12:52.739Z,5.67
2019-03-12T06:15:20.559Z,4.87
2019-03-12T06:17:48.290Z,6.70
2019-03-12T06:20:16.034Z,7.77
2019-03-12T06:22:43.756Z,9.63
2019-03-12T06:25:12.226Z,13.07
2019-03-12T06:27:39.915Z,12.10
2019-03-12T06:30:08.966Z,11.57
2019-03-12T06:33:01.819Z,10.40
2019-03-12T06:35:48.732Z,9.00
2019-03-12T06:38:26.215Z,9.10
2019-03-12T06:41:01.770Z,9.07
2019-03-12T06:43:54.515Z,7.97
2019-03-12T06:46:37.441Z,7.07
2019-03-12T06:49:08.856Z,6.27
2019-03-12T06:52:10.947Z,5.83
2019-03-12T06:55:00.601Z,5.77
2019-03-12T06:57:53.635Z,4.20
2019-03-12T07:00:53.066Z,3.90
2019-03-12T07:03:35.330Z,3.43
2019-03-12T07:06:22.479Z,3.30
2019-03-12T07:09:05.461Z,3.50
2019-03-12T07:11:38.106Z,3.40
2019-03-12T07:14:13.700Z,3.80
2019-03-12T07:17:06.637Z,3.60
2019-03-12T07:20:08.654Z,3.60
2019-03-12T07:22:54.753Z,3.07
2019-03-12T07:25:51.151Z,3.17
2019-03-12T07:28:50.110Z,3.40
2019-03-12T07:31:32.420Z,3.13
2019-03-12T07:34:36.898Z,3.27
2019-03-12T07:37:30.257Z,2.90
2019-03-12T07:40:19.997Z,3.37
2019-03-12T07:42:59.234Z,3.23
2019-03-12T07:45:31.527Z,3.40
2019-03-12T07:48:15.184Z,3.00
2019-03-12T07:50:54.493Z,2.77
2019-03-12T07:53:35.132Z,1.77
2019-03-12T07:56:22.301Z,1.73
2019-03-12T07:59:09.103Z,2.07
2019-03-12T08:01:57.519Z,1.70
2019-03-12T08:05:03.059Z,2.37
2019-03-12T08:07:57.050Z,2.00
2019-03-12T08:10:39.823Z,2.10
2019-03-12T08:13:13.916Z,1.30
2019-03-12T08:16:18.855Z,0.90
2019-03-12T08:19:16.597Z,0.90
2019-03-12T08:22:06.942Z,1.10
2019-03-12T08:25:03.252Z,1.00
2019-03-12T08:27:53.504Z,0.93
2019-03-12T08:30:42.243Z,0.80
2019-03-12T08:33:35.526Z,0.90
2019-03-12T08:36:21.236Z,1.00
2019-03-12T08:39:17.164Z,1.03
2019-03-12T08:42:00.403Z,1.00
2019-03-12T08:44:42.592Z,1.00
2019-03-12T08:47:28.424Z,1.00
2019-03-12T08:50:18.487Z,0.80
2019-03-12T08:53:04.612Z,0.80
2019-03-12T08:56:00.977Z,1.00
2019-03-12T08:58:47.199Z,0.90
2019-03-12T09:01:29.658Z,1.10
2019-03-12T09:04:26.054Z,1.10
2019-03-12T09:07:20.406Z,0.90
2019-03-12T09:10:06.228Z,0.80
2019-03-12T09:12:40.937Z,0.70
2019-03-12T09:15:20.966Z,0.70
2019-03-12T09:18:11.040Z,0.57
2019-03-12T09:20:48.952Z,0.77
2019-03-12T09:23:27.096Z,0.63
2019-03-12T09:26:12.852Z,0.63
2019-03-12T09:28:46.002Z,0.70
2019-03-12T09:31:37.928Z,0.60
2019-03-12T09:34:16.630Z,0.50
2019-03-12T09:37:06.491Z,0.60
2019-03-12T09:40:02.782Z,0.53
2019-03-12T09:42:49.887Z,0.60
2019-03-12T09:45:43.445Z,0.70
2019-03-12T09:48:29.654Z,0.60
2019-03-12T09:51:17.864Z,0.63
2019-03-12T09:54:05.035Z,0.50
2019-03-12T09:56:54.819Z,0.67
2019-03-12T09:59:38.700Z,0.60
2019-03-12T10:02:17.600Z,0.70
2019-03-12T10:04:55.203Z,0.70
2019-03-12T10:07:42.345Z,0.70
2019-03-12T10:10:29.839Z,0.40
2019-03-12T10:13:32.154Z,0.50
2019-03-12T10:16:28.319Z,0.50
2019-03-12T10:19:24.251Z,0.60
2019-03-12T10:22:09.748Z,0.67
2019-03-12T10:25:12.053Z,0.70
2019-03-12T10:28:05.952Z,0.70
2019-03-12T10:30:50.326Z,0.80
2019-03-12T10:33:39.021Z,0.80
2019-03-12T10:36:31.071Z,0.70
2019-03-12T10:39:45.452Z,0.70
2019-03-12T10:42:30.668Z,0.80
2019-03-12T10:45:09.145Z,0.50
2019-03-12T10:47:37.382Z,0.50
2019-03-12T10:50:05.534Z,0.70
2019-03-12T10:52:33.385Z,0.70
2019-03-12T10:55:12.113Z,1.00
2019-03-12T10:57:30.730Z,0.70
2019-03-12T10:59:58.504Z,0.80
2019-03-12T11:02:29.131Z,0.70
2019-03-12T11:04:56.742Z,0.60
2019-03-12T11:07:24.425Z,0.80
2019-03-12T11:09:52.080Z,0.60
2019-03-12T11:12:19.819Z,0.50
2019-03-12T11:14:47.432Z,0.60
2019-03-12T11:17:15.197Z,0.70
2019-03-12T11:19:42.823Z,0.73
2019-03-12T11:22:10.451Z,1.00
2019-03-12T11:24:38.093Z,0.70
2019-03-12T11:27:05.831Z,0.70
2019-03-12T11:29:33.507Z,0.80
2019-03-12T11:32:01.200Z,0.77
2019-03-12T11:34:28.887Z,0.83
2019-03-12T11:36:56.597Z,0.70
2019-03-12T11:39:24.230Z,0.67
2019-03-12T11:41:51.981Z,0.60
2019-03-12T11:44:19.665Z,0.60
2019-03-12T11:46:47.408Z,0.57
2019-03-12T11:49:15.126Z,0.60
2019-03-12T11:51:42.855Z,0.60
2019-03-12T11:54:13.171Z,0.60
2019-03-12T11:56:44.089Z,0.70
2019-03-12T11:59:14.336Z,1.00
2019-03-12T12:01:45.217Z,0.63
2019-03-12T12:04:14.324Z,0.70
2019-03-12T12:06:43.561Z,0.70
2019-03-12T12:09:11.873Z,0.60
2019-03-12T12:11:43.227Z,0.90
2019-03-12T12:14:10.940Z,0.50
2019-03-12T12:16:38.793Z,0.60
2019-03-12T12:19:07.040Z,0.87
2019-03-12T12:21:34.973Z,0.60
2019-03-12T12:24:02.702Z,0.50
2019-03-12T12:26:30.607Z,0.63
2019-03-12T12:28:58.396Z,0.53
2019-03-12T12:31:29.335Z,0.70
2019-03-12T12:33:57.119Z,0.80
2019-03-12T12:36:24.711Z,0.93
2019-03-12T12:38:52.499Z,0.70
2019-03-12T12:41:20.102Z,0.60
2019-03-12T12:43:47.819Z,0.73
2019-03-12T12:46:15.475Z,0.50
2019-03-12T12:48:43.113Z,0.63
2019-03-12T12:51:10.794Z,0.93
2019-03-12T12:53:40.185Z,0.73
2019-03-12T12:56:07.895Z,0.80
2019-03-12T12:58:35.569Z,0.90
2019-03-12T13:01:03.431Z,0.77
2019-03-12T13:03:33.090Z,0.80
2019-03-12T13:06:00.853Z,0.73
2019-03-12T13:08:28.661Z,0.87
2019-03-12T13:10:57.355Z,0.70
2019-03-12T13:13:25.095Z,0.80
2019-03-12T13:15:52.755Z,0.80
2019-03-12T13:18:20.524Z,0.90
2019-03-12T13:20:48.178Z,0.70
2019-03-12T13:23:15.833Z,0.83
2019-03-12T13:25:43.541Z,0.67
2019-03-12T13:28:11.214Z,0.73
2019-03-12T13:30:38.948Z,1.00
2019-03-12T13:33:06.819Z,0.70
2019-03-12T13:35:34.728Z,0.70
2019-03-12T13:38:02.507Z,0.80
2019-03-12T13:40:30.404Z,0.70
2019-03-12T13:42:59.734Z,0.60
2019-03-12T13:45:28.037Z,0.60
2019-03-12T13:47:56.484Z,0.80
2019-03-12T13:50:24.621Z,0.70
2019-03-12T13:52:52.470Z,0.97
2019-03-12T13:55:20.188Z,0.70
2019-03-12T13:57:47.909Z,0.70
2019-03-12T14:00:17.235Z,0.70
2019-03-12T14:02:47.916Z,0.60
2019-03-12T14:05:15.753Z,0.90
2019-03-12T14:07:43.343Z,0.90
2019-03-12T14:10:13.817Z,0.70
2019-03-12T14:12:44.317Z,0.70
2019-03-12T14:15:15.486Z,0.97
2019-03-12T14:17:43.178Z,0.87
2019-03-12T14:20:41.690Z,0.80
2019-03-12T14:23:10.313Z,0.80
2019-03-12T14:25:37.983Z,0.60
2019-03-12T14:28:05.697Z,0.73
2019-03-12T14:30:33.389Z,0.70
2019-03-12T14:33:01.067Z,0.70
2019-03-12T14:35:28.940Z,0.93
2019-03-12T14:37:56.757Z,0.60
2019-03-12T14:40:24.446Z,0.60
2019-03-12T14:42:52.245Z,0.70
2019-03-12T14:45:25.081Z,0.73
2019-03-12T14:47:52.719Z,0.80
2019-03-12T14:50:20.611Z,0.80
2019-03-12T14:52:50.933Z,0.67
2019-03-12T14:55:18.624Z,0.80
2019-03-12T14:57:46.299Z,0.50
2019-03-12T15:00:19.336Z,0.90
2019-03-12T15:02:47.059Z,0.53
2019-03-12T15:05:14.783Z,0.80
2019-03-12T15:07:42.582Z,1.00
2019-03-12T15:10:10.730Z,0.70
2019-03-12T15:12:38.358Z,0.60
2019-03-12T15:15:06.343Z,0.80
2019-03-12T15:17:33.951Z,0.97
2019-03-12T15:20:01.811Z,1.00
2019-03-12T15:22:29.421Z,0.80
2019-03-12T15:24:57.050Z,0.90
2019-03-12T15:27:24.739Z,0.90
2019-03-12T15:29:52.499Z,0.80
2019-03-12T15:32:23.159Z,0.80
2019-03-12T15:34:50.990Z,1.00
2019-03-12T15:37:18.759Z,0.77
2019-03-12T15:39:46.649Z,0.80
2019-03-12T15:42:14.432Z,0.90
2019-03-12T15:44:42.253Z,0.90
2019-03-12T15:47:10.057Z,0.80
2019-03-12T15:49:43.052Z,1.20
2019-03-12T15:52:07.509Z,0.93
2019-03-12T15:54:35.240Z,1.30
2019-03-12T15:57:02.929Z,0.70
2019-03-12T15:59:30.718Z,0.83
2019-03-12T16:01:58.472Z,0.77
2019-03-12T16:04:26.248Z,0.80
2019-03-12T16:07:01.186Z,0.80
2019-03-12T16:09:23.695Z,0.90
2019-03-12T16:11:51.414Z,0.80
2019-03-12T16:14:19.173Z,0.70
2019-03-12T16:16:46.990Z,0.80
2019-03-12T16:19:14.852Z,1.00
2019-03-12T16:21:42.659Z,1.07
2019-03-12T16:24:10.489Z,2.60
2019-03-12T16:26:38.200Z,2.53
2019-03-12T16:29:05.955Z,1.87
2019-03-12T16:31:33.713Z,2.30
2019-03-12T16:34:01.413Z,1.90
2019-03-12T16:36:29.342Z,2.67
2019-03-12T16:38:57.008Z,2.33
2019-03-12T16:41:24.668Z,2.10
2019-03-12T16:43:52.563Z,2.00
2019-03-12T16:46:20.199Z,1.63
2019-03-12T16:48:48.034Z,2.13
2019-03-12T16:51:15.875Z,2.13
2019-03-12T16:53:46.687Z,1.90
2019-03-12T16:56:14.394Z,2.00
2019-03-12T16:58:42.174Z,1.93
2019-03-12T17:01:10.402Z,2.30
2019-03-12T17:03:38.192Z,2.80
2019-03-12T17:06:05.925Z,2.40
2019-03-12T17:08:33.685Z,3.10
2019-03-12T17:11:04.056Z,4.10
2019-03-12T17:13:31.796Z,3.43
2019-03-12T17:16:00.351Z,3.00
2019-03-12T17:18:28.102Z,3.40
2019-03-12T17:20:55.808Z,3.47
2019-03-12T17:23:24.146Z,3.30
2019-03-12T17:25:51.798Z,3.23
2019-03-12T17:28:19.502Z,3.53
2019-03-12T17:30:47.151Z,3.60
2019-03-12T17:33:15.010Z,3.70
2019-03-12T17:35:42.794Z,3.63
2019-03-12T17:38:10.580Z,3.90
2019-03-12T17:40:38.335Z,4.07
2019-03-12T17:43:06.038Z,3.60
2019-03-12T17:45:33.746Z,3.73
2019-03-12T17:48:01.482Z,3.70
2019-03-12T17:50:31.105Z,3.57
2019-03-12T17:52:58.851Z,3.93
2019-03-12T17:55:26.451Z,3.80
2019-03-12T17:57:54.503Z,3.83
2019-03-12T18:00:23.228Z,4.10
2019-03-12T18:02:52.764Z,5.40
2019-03-12T18:05:20.526Z,5.57
2019-03-12T18:07:48.400Z,5.43
2019-03-12T18:10:19.135Z,4.63
2019-03-12T18:12:47.068Z,4.90
2019-03-12T18:15:14.745Z,4.83
2019-03-12T18:17:42.509Z,4.33
2019-03-12T18:20:11.795Z,4.93
2019-03-12T18:22:39.707Z,4.77
2019-03-12T18:25:11.647Z,5.47
2019-03-12T18:27:39.718Z,5.77
2019-03-12T18:30:10.166Z,6.03
2019-03-12T18:32:39.233Z,6.97
2019-03-12T18:35:07.177Z,7.93
2019-03-12T18:37:34.946Z,8.67
2019-03-12T18:40:02.819Z,9.27
2019-03-12T18:42:30.631Z,8.53
2019-03-12T18:44:59.042Z,8.20
2019-03-12T18:47:26.909Z,7.97
2019-03-12T18:49:54.682Z,7.23
2019-03-12T18:52:22.491Z,6.80
2019-03-12T18:54:52.231Z,6.50
2019-03-12T18:57:22.716Z,6.47
2019-03-12T18:59:50.895Z,6.43
2019-03-12T19:02:18.805Z,6.40
2019-03-12T19:04:46.676Z,5.63
2019-03-12T19:07:18.378Z,5.00
2019-03-12T19:09:45.710Z,5.03
2019-03-12T19:12:13.390Z,4.73
2019-03-12T19:14:41.060Z,5.43
2019-03-12T19:17:08.830Z,5.53
2019-03-12T19:19:36.571Z,5.43
2019-03-12T19:22:04.394Z,6.70
2019-03-12T19:24:33.287Z,6.10
2019-03-12T19:27:01.158Z,6.30
2019-03-12T19:29:29.345Z,6.10
2019-03-12T19:32:14.441Z,6.07
2019-03-12T19:34:43.930Z,6.43
2019-03-12T19:37:18.920Z,5.70
2019-03-12T19:39:46.697Z,5.37
2019-03-12T19:42:14.601Z,5.70
2019-03-12T19:44:45.015Z,6.00
2019-03-12T19:47:12.985Z,5.27
2019-03-12T19:49:40.914Z,5.47
2019-03-12T19:52:11.586Z,5.37
2019-03-12T19:54:39.239Z,5.67
2019-03-12T19:57:07.066Z,5.50
2019-03-12T19:59:34.716Z,5.40
2019-03-12T20:02:15.266Z,5.03
2019-03-12T20:04:33.210Z,6.03
2019-03-12T20:07:01.083Z,5.50
2019-03-12T20:10:08.260Z,5.33
2019-03-12T20:13:23.563Z,5.90
2019-03-12T20:16:35.917Z,6.70
2019-03-12T20:19:41.275Z,5.93
2019-03-12T20:22:55.630Z,6.53
2019-03-12T20:25:54.336Z,6.43
2019-03-12T20:28:47.717Z,6.70
2019-03-12T20:31:52.459Z,7.03
2019-03-12T20:35:26.227Z,7.67
2019-03-12T20:38:37.468Z,6.90
2019-03-12T20:41:42.825Z,7.37
2019-03-12T20:45:04.925Z,6.80
2019-03-12T20:48:26.423Z,6.97
2019-03-12T20:51:30.270Z,6.60
2019-03-12T20:54:34.286Z,7.60
2019-03-12T20:57:45.522Z,7.30
2019-03-12T21:00:51.231Z,7.07
2019-03-12T21:04:11.683Z,8.60
2019-03-12T21:07:30.366Z,7.60
2019-03-12T21:10:43.039Z,6.47
2019-03-12T21:13:58.852Z,7.03
2019-03-12T21:16:57.105Z,6.60
2019-03-12T21:20:08.376Z,6.27
2019-03-12T21:23:10.788Z,6.20
2019-03-12T21:26:23.467Z,6.03
2019-03-12T21:29:14.426Z,5.67
2019-03-12T21:31:42.184Z,5.53
2019-03-12T21:34:09.925Z,5.37
2019-03-12T21:36:37.949Z,5.87
2019-03-12T21:39:07.387Z,5.50
2019-03-12T21:41:36.918Z,5.43
2019-03-12T21:44:05.021Z,5.57
2019-03-12T21:46:32.769Z,5.50
2019-03-12T21:49:00.534Z,6.40
2019-03-12T21:51:28.353Z,5.60
2019-03-12T21:53:56.079Z,6.47
2019-03-12T21:56:23.831Z,6.00
2019-03-12T21:58:51.495Z,6.20
2019-03-12T22:01:19.145Z,5.33
2019-03-12T22:03:48.637Z,6.80
2019-03-12T22:06:16.358Z,5.70
2019-03-12T22:08:44.197Z,5.87
2019-03-12T22:11:12.010Z,5.73
2019-03-12T22:13:39.761Z,5.10
2019-03-12T22:16:09.261Z,5.27
2019-03-12T22:18:37.104Z,6.30
2019-03-12T22:21:04.984Z,7.83
2019-03-12T22:23:42.010Z,6.87
2019-03-12T22:26:09.813Z,6.77
2019-03-12T22:28:37.529Z,6.20
2019-03-12T22:31:05.409Z,6.00
2019-03-12T22:33:33.140Z,5.77
2019-03-12T22:36:00.816Z,5.13
2019-03-12T22:38:28.372Z,6.03
2019-03-12T22:40:56.073Z,6.40
2019-03-12T22:43:23.705Z,5.70
2019-03-12T22:45:51.422Z,4.90
2019-03-12T22:48:19.032Z,5.10
2019-03-12T22:50:46.704Z,4.90
2019-03-12T22:53:14.328Z,5.33
2019-03-12T22:55:42.045Z,5.50
2019-03-12T22:58:09.738Z,5.10
2019-03-12T23:00:56.029Z,5.70
2019-03-12T23:03:42.150Z,5.33
2019-03-12T23:06:28.985Z,5.40
2019-03-12T23:09:15.311Z,4.70
2019-03-12T23:11:44.822Z,4.90
2019-03-12T23:14:13.004Z,5.40
2019-03-12T23:16:40.858Z,4.97
2019-03-12T23:19:08.491Z,4.80
2019-03-12T23:21:36.592Z,5.03
2019-03-12T23:24:04.228Z,4.90
2019-03-12T23:26:31.989Z,4.90
2019-03-12T23:28:59.551Z,4.60
2019-03-12T23:31:27.263Z,5.27
2019-03-12T23:33:54.889Z,4.90
2019-03-12T23:36:22.661Z,4.67
2019-03-12T23:38:50.292Z,4.80
2019-03-12T23:41:17.903Z,5.00
2019-03-12T23:43:45.521Z,4.40
2019-03-12T23:46:13.422Z,4.87
2019-03-12T23:48:41.047Z,4.70
2019-03-12T23:51:08.969Z,4.37
2019-03-12T23:53:36.585Z,5.20
2019-03-12T23:56:04.291Z,5.50
2019-03-12T23:58:32.060Z,5.47
